createdAt,value
2017-09-25T00:00:12.728Z,71.1
2017-09-25T00:01:13.918Z,66.4
2017-09-25T00:02:14.665Z,65.0
2017-09-25T00:03:15.385Z,68.5
2017-09-25T00:04:16.121Z,75.3
2017-09-25T00:05:16.852Z,71.0
2017-09-25T00:06:18.096Z,75.6
2017-09-25T00:07:18.788Z,72.1
2017-09-25T00:08:19.585Z,70.9
2017-09-25T00:09:20.384Z,69.6
2017-09-25T00:10:21.111Z,69.7
2017-09-25T00:11:22.099Z,77.8
2017-09-25T00:12:22.838Z,77.6
2017-09-25T00:13:23.605Z,75.5
2017-09-25T00:14:24.390Z,71.1
2017-09-25T00:15:25.193Z,73.9
2017-09-25T00:16:26.250Z,73.7
2017-09-25T00:17:27.045Z,72.8
2017-09-25T00:18:27.828Z,68.6
2017-09-25T00:19:28.620Z,77.6
2017-09-25T00:20:29.398Z,72.6
2017-09-25T00:21:30.152Z,78.2
2017-09-25T00:22:30.918Z,75.9
2017-09-25T00:23:31.649Z,77.1
2017-09-25T00:24:32.580Z,71.6
2017-09-25T00:25:33.419Z,80.1
2017-09-25T00:26:34.146Z,72.0
2017-09-25T00:27:34.962Z,75.7
2017-09-25T00:28:35.769Z,82.5
2017-09-25T00:29:36.960Z,73.4
2017-09-25T00:30:37.702Z,72.9
2017-09-25T00:31:38.438Z,72.2
2017-09-25T00:32:39.181Z,70.9
2017-09-25T00:33:39.920Z,74.3
2017-09-25T00:34:41.001Z,77.3
2017-09-25T00:35:41.736Z,72.3
2017-09-25T00:36:42.466Z,68.0
2017-09-25T00:37:43.286Z,73.3
2017-09-25T00:38:44.093Z,64.7
2017-09-25T00:39:44.835Z,73.0
2017-09-25T00:40:45.574Z,74.4
2017-09-25T00:41:46.639Z,66.5
2017-09-25T00:42:47.377Z,75.2
2017-09-25T00:43:48.181Z,72.8
2017-09-25T00:44:48.957Z,73.0
2017-09-25T00:45:49.695Z,72.4
2017-09-25T00:46:50.786Z,71.1
2017-09-25T00:47:51.555Z,75.5
2017-09-25T00:48:52.284Z,71.0
2017-09-25T00:49:53.014Z,70.9
2017-09-25T00:50:53.753Z,70.2
2017-09-25T00:51:54.491Z,71.7
2017-09-25T00:52:55.241Z,72.0
2017-09-25T00:53:56.305Z,71.7
2017-09-25T00:54:57.061Z,76.8
2017-09-25T00:55:57.788Z,73.3
2017-09-25T00:56:58.571Z,70.8
2017-09-25T00:57:59.315Z,74.8
2017-09-25T00:59:00.135Z,74.3
2017-09-25T01:00:00.863Z,77.3
2017-09-25T01:01:01.661Z,99.3
2017-09-25T01:02:02.392Z,89.6
2017-09-25T01:03:03.120Z,86.5
2017-09-25T01:04:04.162Z,86.1
2017-09-25T01:05:04.964Z,74.2
2017-09-25T01:06:05.692Z,79.7
2017-09-25T01:07:06.446Z,75.0
2017-09-25T01:08:07.240Z,77.7
2017-09-25T01:09:08.337Z,73.4
2017-09-25T01:10:09.093Z,79.4
2017-09-25T01:11:09.828Z,76.3
2017-09-25T01:12:10.635Z,84.0
2017-09-25T01:13:11.362Z,78.5
2017-09-25T01:14:12.096Z,80.8
2017-09-25T01:15:13.226Z,83.3
2017-09-25T01:16:13.993Z,82.9
2017-09-25T01:17:14.794Z,84.6
2017-09-25T01:18:15.545Z,90.0
2017-09-25T01:19:16.320Z,79.6
2017-09-25T01:20:17.423Z,107.5
2017-09-25T01:21:18.155Z,86.4
2017-09-25T01:22:18.892Z,81.0
2017-09-25T01:23:19.635Z,85.9
2017-09-25T01:24:20.361Z,86.6
2017-09-25T01:25:21.392Z,82.2
2017-09-25T01:26:22.121Z,96.7
2017-09-25T01:27:22.948Z,94.9
2017-09-25T01:28:23.741Z,108.6
2017-09-25T01:29:24.531Z,100.3
2017-09-25T01:30:25.665Z,89.3
2017-09-25T01:31:26.406Z,81.2
2017-09-25T01:32:27.221Z,80.4
2017-09-25T01:33:28.022Z,85.1
2017-09-25T01:34:28.789Z,74.4
2017-09-25T01:35:29.782Z,86.9
2017-09-25T01:36:30.530Z,79.3
2017-09-25T01:37:31.332Z,89.6
2017-09-25T01:38:32.116Z,73.2
2017-09-25T01:39:32.853Z,84.8
2017-09-25T01:40:33.980Z,79.9
2017-09-25T01:41:34.724Z,70.6
2017-09-25T01:42:35.533Z,80.8
2017-09-25T01:43:36.286Z,79.2
2017-09-25T01:44:37.085Z,84.3
2017-09-25T01:45:38.175Z,90.8
2017-09-25T01:46:38.915Z,83.0
2017-09-25T01:47:39.655Z,77.9
2017-09-25T01:48:40.395Z,89.2
2017-09-25T01:49:41.155Z,85.2
2017-09-25T01:50:42.085Z,88.0
2017-09-25T01:51:42.886Z,87.8
2017-09-25T01:52:43.630Z,91.9
2017-09-25T01:53:44.416Z,88.3
2017-09-25T01:54:45.159Z,87.0
2017-09-25T01:55:45.960Z,77.7
2017-09-25T01:56:46.748Z,89.0
2017-09-25T01:57:47.581Z,77.7
2017-09-25T01:58:48.723Z,77.8
2017-09-25T01:59:49.520Z,86.7
2017-09-25T02:00:50.316Z,82.3
2017-09-25T02:01:51.057Z,88.8
2017-09-25T02:02:51.802Z,75.1
2017-09-25T02:03:52.888Z,79.5
2017-09-25T02:04:53.610Z,76.9
2017-09-25T02:05:54.436Z,78.2
2017-09-25T02:06:55.249Z,106.0
2017-09-25T02:07:55.973Z,85.5
2017-09-25T02:08:56.780Z,116.7
2017-09-25T02:09:57.580Z,111.3
2017-09-25T02:10:58.790Z,104.3
2017-09-25T02:11:59.544Z,84.8
2017-09-25T02:13:00.330Z,84.5
2017-09-25T02:14:01.078Z,82.9
2017-09-25T02:15:01.875Z,77.5
2017-09-25T02:16:02.956Z,76.3
2017-09-25T02:17:03.682Z,81.5
2017-09-25T02:18:04.416Z,86.0
2017-09-25T02:19:05.143Z,83.6
2017-09-25T02:20:05.893Z,96.8
2017-09-25T02:21:06.930Z,83.9
2017-09-25T02:22:07.607Z,81.9
2017-09-25T02:23:08.422Z,80.0
2017-09-25T02:24:09.152Z,80.5
2017-09-25T02:25:09.885Z,92.9
2017-09-25T02:26:11.033Z,98.4
2017-09-25T02:27:11.772Z,95.1
2017-09-25T02:28:12.505Z,91.3
2017-09-25T02:29:13.244Z,98.2
2017-09-25T02:30:14.045Z,96.8
2017-09-25T02:31:15.083Z,76.4
2017-09-25T02:32:15.821Z,84.9
2017-09-25T02:33:16.568Z,86.9
2017-09-25T02:34:17.377Z,83.2
2017-09-25T02:35:18.105Z,81.9
2017-09-25T02:36:19.307Z,91.7
2017-09-25T02:37:20.114Z,84.2
2017-09-25T02:38:20.846Z,91.3
2017-09-25T02:39:21.587Z,84.4
2017-09-25T02:40:22.326Z,77.9
2017-09-25T02:41:23.056Z,74.4
2017-09-25T02:42:23.807Z,85.4
2017-09-25T02:43:24.893Z,90.4
2017-09-25T02:44:25.703Z,91.5
2017-09-25T02:45:26.437Z,105.6
2017-09-25T02:46:27.165Z,106.1
2017-09-25T02:47:27.994Z,101.2
2017-09-25T02:48:29.075Z,81.6
2017-09-25T02:49:29.894Z,98.3
2017-09-25T02:50:30.684Z,102.9
2017-09-25T02:51:31.495Z,74.7
2017-09-25T02:52:32.238Z,87.7
2017-09-25T02:53:33.230Z,85.0
2017-09-25T02:54:34.031Z,86.4
2017-09-25T02:55:34.851Z,114.4
2017-09-25T02:56:35.579Z,106.0
2017-09-25T02:57:36.318Z,92.8
2017-09-25T02:58:37.097Z,79.1
2017-09-25T02:59:38.180Z,98.2
2017-09-25T03:00:38.918Z,99.0
2017-09-25T03:01:39.730Z,80.4
2017-09-25T03:02:40.457Z,68.2
2017-09-25T03:03:41.189Z,77.2
2017-09-25T03:04:42.221Z,93.7
2017-09-25T03:05:42.960Z,89.3
2017-09-25T03:06:43.689Z,86.5
2017-09-25T03:07:44.419Z,85.8
2017-09-25T03:08:45.155Z,89.4
2017-09-25T03:09:45.937Z,96.8
2017-09-25T03:10:46.684Z,100.8
2017-09-25T03:11:47.900Z,91.9
2017-09-25T03:12:48.622Z,88.0
2017-09-25T03:13:49.421Z,80.9
2017-09-25T03:14:50.165Z,92.4
2017-09-25T03:15:50.854Z,88.3
2017-09-25T03:16:52.041Z,85.8
2017-09-25T03:17:52.776Z,88.9
2017-09-25T03:18:53.565Z,90.0
2017-09-25T03:19:54.304Z,95.3
2017-09-25T03:20:55.084Z,86.3
2017-09-25T03:21:56.169Z,96.3
2017-09-25T03:22:56.955Z,107.7
2017-09-25T03:23:57.687Z,108.6
2017-09-25T03:24:58.505Z,92.2
2017-09-25T03:25:59.259Z,83.9
2017-09-25T03:27:00.376Z,87.3
2017-09-25T03:28:01.104Z,100.9
2017-09-25T03:29:01.825Z,77.2
2017-09-25T03:30:02.549Z,111.6
2017-09-25T03:31:03.284Z,108.4
2017-09-25T03:32:04.494Z,89.8
2017-09-25T03:33:05.230Z,96.3
2017-09-25T03:34:06.014Z,84.8
2017-09-25T03:35:06.750Z,97.1
2017-09-25T03:36:07.483Z,83.8
2017-09-25T03:37:08.571Z,105.2
2017-09-25T03:38:09.304Z,84.0
2017-09-25T03:39:10.034Z,83.5
2017-09-25T03:40:11.194Z,86.5
2017-09-25T03:41:12.870Z,73.7
2017-09-25T03:42:13.815Z,83.2
2017-09-25T03:43:14.882Z,90.1
2017-09-25T03:44:16.356Z,81.9
2017-09-25T03:45:17.154Z,77.9
2017-09-25T03:46:17.883Z,80.0
2017-09-25T03:47:19.018Z,78.9
2017-09-25T03:48:19.795Z,81.3
2017-09-25T03:49:20.584Z,78.8
2017-09-25T03:50:21.364Z,79.6
2017-09-25T03:51:22.104Z,84.8
2017-09-25T03:52:23.084Z,78.7
2017-09-25T03:53:23.824Z,81.3
2017-09-25T03:54:24.555Z,83.2
2017-09-25T03:55:25.287Z,82.6
2017-09-25T03:56:26.114Z,77.7
2017-09-25T03:57:27.281Z,80.6
2017-09-25T03:58:28.089Z,79.3
2017-09-25T03:59:28.864Z,77.3
2017-09-25T04:00:29.598Z,83.6
2017-09-25T04:01:30.331Z,83.9
2017-09-25T04:02:31.361Z,84.4
2017-09-25T04:03:32.043Z,86.9
2017-09-25T04:04:32.769Z,89.0
2017-09-25T04:05:33.497Z,87.4
2017-09-25T04:06:34.224Z,84.7
2017-09-25T04:07:35.267Z,90.8
2017-09-25T04:08:36.064Z,88.6
2017-09-25T04:09:36.809Z,90.7
2017-09-25T04:10:37.631Z,92.6
2017-09-25T04:11:38.416Z,94.5
2017-09-25T04:12:39.625Z,92.7
2017-09-25T04:13:40.362Z,85.7
2017-09-25T04:14:41.145Z,84.6
2017-09-25T04:15:41.878Z,84.4
2017-09-25T04:16:42.666Z,86.1
2017-09-25T04:17:43.486Z,89.1
2017-09-25T04:18:44.330Z,91.0
2017-09-25T04:19:45.314Z,89.5
2017-09-25T04:20:46.055Z,89.6
2017-09-25T04:21:46.798Z,83.3
2017-09-25T04:22:47.583Z,87.7
2017-09-25T04:23:48.315Z,85.9
2017-09-25T04:24:49.428Z,83.8
2017-09-25T04:25:50.126Z,83.1
2017-09-25T04:26:50.862Z,85.5
2017-09-25T04:27:51.690Z,80.0
2017-09-25T04:28:52.522Z,78.6
2017-09-25T04:29:53.293Z,85.9
2017-09-25T04:30:54.035Z,85.9
2017-09-25T04:31:54.776Z,88.9
2017-09-25T04:32:55.506Z,85.0
2017-09-25T04:33:56.305Z,80.4
2017-09-25T04:34:57.389Z,83.5
2017-09-25T04:35:58.114Z,84.0
2017-09-25T04:36:58.847Z,83.4
2017-09-25T04:37:59.585Z,83.8
2017-09-25T04:39:00.326Z,83.6
2017-09-25T04:40:01.408Z,84.0
2017-09-25T04:41:02.157Z,87.9
2017-09-25T04:42:02.955Z,88.7
2017-09-25T04:43:03.736Z,93.2
2017-09-25T04:44:04.534Z,93.5
2017-09-25T04:45:05.579Z,91.3
2017-09-25T04:46:06.364Z,98.3
2017-09-25T04:47:07.104Z,101.6
2017-09-25T04:48:07.834Z,95.6
2017-09-25T04:49:08.583Z,97.3
2017-09-25T04:50:09.624Z,93.4
2017-09-25T04:51:10.355Z,98.7
2017-09-25T04:52:11.095Z,103.4
2017-09-25T04:53:11.834Z,99.3
2017-09-25T04:54:12.563Z,94.0
2017-09-25T04:55:13.756Z,104.8
2017-09-25T04:56:14.505Z,103.2
2017-09-25T04:57:15.296Z,92.1
2017-09-25T04:58:16.025Z,93.7
2017-09-25T04:59:16.771Z,104.2
2017-09-25T05:00:17.850Z,99.4
2017-09-25T05:01:18.584Z,97.7
2017-09-25T05:02:19.332Z,96.4
2017-09-25T05:04:21.814Z,94.8
2017-09-25T05:05:24.376Z,90.9
2017-09-25T05:06:25.763Z,92.9
2017-09-25T05:07:27.547Z,97.5
2017-09-25T05:08:28.933Z,98.3
2017-09-25T05:09:29.986Z,97.9
2017-09-25T05:10:30.675Z,94.1
2017-09-25T05:11:31.404Z,93.5
2017-09-25T05:12:32.161Z,91.1
2017-09-25T05:13:33.888Z,89.0
2017-09-25T05:14:34.774Z,92.3
2017-09-25T05:15:35.964Z,94.7
2017-09-25T05:16:36.704Z,102.4
2017-09-25T05:17:37.437Z,92.5
2017-09-25T05:18:38.174Z,97.5
2017-09-25T05:19:38.925Z,94.9
2017-09-25T05:20:40.144Z,97.8
2017-09-25T05:21:40.861Z,99.1
2017-09-25T05:22:41.693Z,93.8
2017-09-25T05:23:42.475Z,100.1
2017-09-25T05:24:43.289Z,101.8
2017-09-25T05:25:44.284Z,100.1
2017-09-25T05:26:45.016Z,101.1
2017-09-25T05:27:45.759Z,103.8
2017-09-25T05:28:46.544Z,100.4
2017-09-25T05:29:47.277Z,104.7
2017-09-25T05:30:48.014Z,108.2
2017-09-25T05:31:48.753Z,96.5
2017-09-25T05:32:49.849Z,97.1
2017-09-25T05:33:50.574Z,105.6
2017-09-25T05:34:51.325Z,103.7
2017-09-25T05:35:52.067Z,108.1
2017-09-25T05:36:52.806Z,106.1
2017-09-25T05:37:54.013Z,116.8
2017-09-25T05:38:54.752Z,118.2
2017-09-25T05:39:55.556Z,116.2
2017-09-25T05:40:56.354Z,119.3
2017-09-25T05:41:57.094Z,120.9
2017-09-25T05:42:58.130Z,120.8
2017-09-25T05:43:58.853Z,126.2
2017-09-25T05:44:59.585Z,129.8
2017-09-25T05:46:00.341Z,119.5
2017-09-25T05:47:01.081Z,110.1
2017-09-25T05:48:01.811Z,111.2
2017-09-25T05:49:02.559Z,109.7
2017-09-25T05:50:03.334Z,108.9
2017-09-25T05:51:04.081Z,117.3
2017-09-25T05:52:04.823Z,117.2
2017-09-25T05:53:05.913Z,114.1
2017-09-25T05:54:06.648Z,111.3
2017-09-25T05:55:07.384Z,113.8
2017-09-25T05:56:08.133Z,105.3
2017-09-25T05:57:08.870Z,109.0
2017-09-25T05:58:09.913Z,114.0
2017-09-25T05:59:10.663Z,113.5
2017-09-25T06:00:11.444Z,114.0
2017-09-25T06:01:12.183Z,124.6
2017-09-25T06:02:12.927Z,124.6
2017-09-25T06:03:13.984Z,123.0
2017-09-25T06:04:14.723Z,122.2
2017-09-25T06:05:15.460Z,117.6
2017-09-25T06:06:16.208Z,131.4
2017-09-25T06:07:17.021Z,118.8
2017-09-25T06:08:18.164Z,121.0
2017-09-25T06:09:18.898Z,121.0
2017-09-25T06:10:19.655Z,113.6
2017-09-25T06:11:20.441Z,121.0
2017-09-25T06:12:21.186Z,117.6
2017-09-25T06:13:22.014Z,122.4
2017-09-25T06:14:22.745Z,124.1
2017-09-25T06:15:23.489Z,131.7
2017-09-25T06:16:24.638Z,118.1
2017-09-25T06:17:25.392Z,123.5
2017-09-25T06:18:26.177Z,118.4
2017-09-25T06:19:26.915Z,132.4
2017-09-25T06:20:27.731Z,127.2
2017-09-25T06:21:28.788Z,129.0
2017-09-25T06:22:29.536Z,122.7
2017-09-25T06:23:30.281Z,128.9
2017-09-25T06:24:31.063Z,128.8
2017-09-25T06:25:31.808Z,123.7
2017-09-25T06:26:32.607Z,119.3
2017-09-25T06:27:33.748Z,128.0
2017-09-25T06:28:34.483Z,122.0
2017-09-25T06:29:35.223Z,126.0
2017-09-25T06:30:35.954Z,120.4
2017-09-25T06:31:36.695Z,123.9
2017-09-25T06:32:37.863Z,125.9
2017-09-25T06:33:38.603Z,126.1
2017-09-25T06:34:39.359Z,133.8
2017-09-25T06:35:40.173Z,125.2
2017-09-25T06:36:40.888Z,127.0
2017-09-25T06:37:42.384Z,127.7
2017-09-25T06:38:43.141Z,125.9
2017-09-25T06:39:43.940Z,128.2
2017-09-25T06:40:44.675Z,121.6
2017-09-25T06:41:45.528Z,121.8
2017-09-25T06:42:46.320Z,121.3
2017-09-25T06:43:47.127Z,120.1
2017-09-25T06:44:48.283Z,117.3
2017-09-25T06:45:49.076Z,122.2
2017-09-25T06:46:49.879Z,117.3
2017-09-25T06:47:50.627Z,121.6
2017-09-25T06:48:51.382Z,123.1
2017-09-25T06:49:52.324Z,125.3
2017-09-25T06:50:53.078Z,120.3
2017-09-25T06:51:53.863Z,121.0
2017-09-25T06:52:54.656Z,116.8
2017-09-25T06:53:55.493Z,119.9
2017-09-25T06:54:56.593Z,113.5
2017-09-25T06:55:57.336Z,121.0
2017-09-25T06:56:58.151Z,120.2
2017-09-25T06:57:58.947Z,103.9
2017-09-25T06:58:59.683Z,109.2
2017-09-25T07:00:00.833Z,115.4
2017-09-25T07:01:01.598Z,116.6
2017-09-25T07:02:02.333Z,115.7
2017-09-25T07:03:03.071Z,111.3
2017-09-25T07:04:03.803Z,117.0
2017-09-25T07:05:04.806Z,114.2
2017-09-25T07:06:05.595Z,112.2
2017-09-25T07:07:06.386Z,117.2
2017-09-25T07:08:07.203Z,108.5
2017-09-25T07:09:07.944Z,108.7
2017-09-25T07:10:08.951Z,109.2
2017-09-25T07:11:09.754Z,108.6
2017-09-25T07:12:10.508Z,107.9
2017-09-25T07:13:11.248Z,101.8
2017-09-25T07:14:11.983Z,102.9
2017-09-25T07:15:13.017Z,98.4
2017-09-25T07:16:13.819Z,102.8
2017-09-25T07:17:14.566Z,102.0
2017-09-25T07:18:15.313Z,91.7
2017-09-25T07:19:16.056Z,99.0
2017-09-25T07:20:16.802Z,98.0
2017-09-25T07:21:17.617Z,101.5
2017-09-25T07:22:18.753Z,101.0
2017-09-25T07:23:19.494Z,99.9
2017-09-25T07:24:20.237Z,95.4
2017-09-25T07:25:20.983Z,95.5
2017-09-25T07:26:21.727Z,96.0
2017-09-25T07:27:22.708Z,93.2
2017-09-25T07:28:23.437Z,94.4
2017-09-25T07:29:24.173Z,91.9
2017-09-25T07:30:24.912Z,90.2
2017-09-25T07:31:25.646Z,91.8
2017-09-25T07:32:26.384Z,83.5
2017-09-25T07:33:27.124Z,87.7
2017-09-25T07:34:28.073Z,87.1
2017-09-25T07:35:28.816Z,86.7
2017-09-25T07:36:29.558Z,90.5
2017-09-25T07:37:30.340Z,87.3
2017-09-25T07:38:31.087Z,89.0
2017-09-25T07:39:32.131Z,84.8
2017-09-25T07:40:32.964Z,88.2
2017-09-25T07:41:33.743Z,85.5
2017-09-25T07:42:34.523Z,85.4
2017-09-25T07:43:35.256Z,85.1
2017-09-25T07:44:36.077Z,83.3
2017-09-25T07:45:37.233Z,84.0
2017-09-25T07:46:37.991Z,85.0
2017-09-25T07:47:38.778Z,82.2
2017-09-25T07:48:39.609Z,85.6
2017-09-25T07:49:40.344Z,84.7
2017-09-25T07:50:41.375Z,81.5
2017-09-25T07:51:42.108Z,79.0
2017-09-25T07:52:42.842Z,77.5
2017-09-25T07:53:43.585Z,79.0
2017-09-25T07:54:44.429Z,74.4
2017-09-25T07:55:45.187Z,71.3
2017-09-25T07:56:45.925Z,71.3
2017-09-25T07:57:47.090Z,68.5
2017-09-25T07:58:47.896Z,69.0
2017-09-25T07:59:48.650Z,67.1
2017-09-25T08:00:49.447Z,64.1
2017-09-25T08:01:50.188Z,64.2
2017-09-25T08:02:51.234Z,65.0
2017-09-25T08:03:51.977Z,64.8
2017-09-25T08:04:52.773Z,63.9
2017-09-25T08:05:53.513Z,66.1
2017-09-25T08:06:54.261Z,66.9
2017-09-25T08:07:55.005Z,66.4
2017-09-25T08:08:55.817Z,65.2
2017-09-25T08:09:56.619Z,66.1
2017-09-25T08:10:57.414Z,66.3
2017-09-25T08:11:58.158Z,60.7
2017-09-25T08:12:59.342Z,62.1
2017-09-25T08:14:00.104Z,63.5
2017-09-25T08:15:00.859Z,63.9
2017-09-25T08:16:01.646Z,61.9
2017-09-25T08:17:02.464Z,64.5
2017-09-25T08:18:03.680Z,64.7
2017-09-25T08:19:04.419Z,64.1
2017-09-25T08:20:05.157Z,65.4
2017-09-25T08:21:05.937Z,64.8
2017-09-25T08:22:06.751Z,62.3
2017-09-25T08:23:07.883Z,63.3
2017-09-25T08:24:08.623Z,62.9
2017-09-25T08:25:09.353Z,63.4
2017-09-25T08:26:10.092Z,62.6
2017-09-25T08:27:10.861Z,63.4
2017-09-25T08:28:11.810Z,64.5
2017-09-25T08:29:12.546Z,64.1
2017-09-25T08:30:13.352Z,65.5
2017-09-25T08:31:14.109Z,66.6
2017-09-25T08:32:14.903Z,67.5
2017-09-25T08:33:15.846Z,64.8
2017-09-25T08:34:16.648Z,60.8
2017-09-25T08:35:17.439Z,64.6
2017-09-25T08:36:18.252Z,65.4
2017-09-25T08:37:18.994Z,66.3
2017-09-25T08:38:20.039Z,66.0
2017-09-25T08:39:20.777Z,66.7
2017-09-25T08:40:21.628Z,65.1
2017-09-25T08:41:22.372Z,64.1
2017-09-25T08:42:23.164Z,65.6
2017-09-25T08:43:24.220Z,61.3
2017-09-25T08:44:25.040Z,66.0
2017-09-25T08:45:25.822Z,63.4
2017-09-25T08:46:26.564Z,66.2
2017-09-25T08:47:27.327Z,67.1
2017-09-25T08:48:28.527Z,63.1
2017-09-25T08:49:29.305Z,63.0
2017-09-25T08:50:30.123Z,66.6
2017-09-25T08:51:30.859Z,66.6
2017-09-25T08:52:31.600Z,66.3
2017-09-25T08:53:32.340Z,63.4
2017-09-25T08:54:33.085Z,61.5
2017-09-25T08:55:33.905Z,64.3
2017-09-25T08:56:34.723Z,64.3
2017-09-25T08:57:35.537Z,61.2
2017-09-25T08:58:36.633Z,62.3
2017-09-25T08:59:37.378Z,60.4
2017-09-25T09:00:38.163Z,64.4
2017-09-25T09:01:38.914Z,61.4
2017-09-25T09:02:39.723Z,61.3
2017-09-25T09:03:40.672Z,58.8
2017-09-25T09:04:41.414Z,56.8
2017-09-25T09:05:42.163Z,56.1
2017-09-25T09:06:42.914Z,56.3
2017-09-25T09:07:43.653Z,56.5
2017-09-25T09:08:44.772Z,58.5
2017-09-25T09:09:45.505Z,55.0
2017-09-25T09:10:46.324Z,54.2
2017-09-25T09:11:47.064Z,55.5
2017-09-25T09:12:47.814Z,57.3
2017-09-25T09:13:48.554Z,54.1
2017-09-25T09:14:49.303Z,54.7
2017-09-25T09:15:50.043Z,53.8
2017-09-25T09:16:51.149Z,54.2
2017-09-25T09:17:51.887Z,54.1
2017-09-25T09:18:52.628Z,51.1
2017-09-25T09:19:53.450Z,51.9
2017-09-25T09:20:54.189Z,49.4
2017-09-25T09:21:55.330Z,49.4
2017-09-25T09:22:56.194Z,49.7
2017-09-25T09:23:56.932Z,50.3
2017-09-25T09:24:57.684Z,51.9
2017-09-25T09:25:58.422Z,52.4
2017-09-25T09:26:59.570Z,51.2
2017-09-25T09:28:00.359Z,49.6
2017-09-25T09:29:01.102Z,48.4
2017-09-25T09:30:01.844Z,49.6
2017-09-25T09:31:02.665Z,50.1
2017-09-25T09:32:03.715Z,49.4
2017-09-25T09:33:04.512Z,49.2
2017-09-25T09:34:05.254Z,47.6
2017-09-25T09:35:05.990Z,47.3
2017-09-25T09:36:06.805Z,48.6
2017-09-25T09:37:07.964Z,49.9
2017-09-25T09:38:08.784Z,49.4
2017-09-25T09:39:09.525Z,50.5
2017-09-25T09:40:10.346Z,49.5
2017-09-25T09:41:11.079Z,50.3
2017-09-25T09:42:12.082Z,50.6
2017-09-25T09:43:12.827Z,52.8
2017-09-25T09:44:13.620Z,51.5
2017-09-25T09:45:14.353Z,52.2
2017-09-25T09:46:15.089Z,51.8
2017-09-25T09:47:16.236Z,51.2
2017-09-25T09:48:16.985Z,53.7
2017-09-25T09:49:17.791Z,52.7
2017-09-25T09:50:18.593Z,53.6
2017-09-25T09:51:19.335Z,53.7
2017-09-25T09:52:20.502Z,55.3
2017-09-25T09:53:21.243Z,54.1
2017-09-25T09:54:21.998Z,53.6
2017-09-25T09:55:22.783Z,55.2
2017-09-25T09:56:23.593Z,54.4
2017-09-25T09:57:24.635Z,53.4
2017-09-25T09:58:25.382Z,52.3
2017-09-25T09:59:26.198Z,51.2
2017-09-25T10:00:26.972Z,53.8
2017-09-25T10:01:27.713Z,53.2
2017-09-25T10:02:28.865Z,52.5
2017-09-25T10:03:29.684Z,51.4
2017-09-25T10:04:30.429Z,53.3
2017-09-25T10:05:31.164Z,53.2
2017-09-25T10:06:31.908Z,52.0
2017-09-25T10:07:33.012Z,53.1
2017-09-25T10:08:33.756Z,53.7
2017-09-25T10:09:34.498Z,53.1
2017-09-25T10:10:35.347Z,54.7
2017-09-25T10:11:36.159Z,53.3
2017-09-25T10:12:37.104Z,51.9
2017-09-25T10:13:37.846Z,49.7
2017-09-25T10:14:38.585Z,49.3
2017-09-25T10:15:39.334Z,52.0
2017-09-25T10:16:40.084Z,49.3
2017-09-25T10:17:41.297Z,50.9
2017-09-25T10:18:42.119Z,49.7
2017-09-25T10:19:42.938Z,47.1
2017-09-25T10:20:43.724Z,48.3
2017-09-25T10:21:44.540Z,48.0
2017-09-25T10:22:45.545Z,47.5
2017-09-25T10:23:46.282Z,44.8
2017-09-25T10:24:47.029Z,44.8
2017-09-25T10:25:47.823Z,42.7
2017-09-25T10:26:48.564Z,44.3
2017-09-25T10:27:49.609Z,43.0
2017-09-25T10:28:50.362Z,44.5
2017-09-25T10:29:51.157Z,43.6
2017-09-25T10:30:51.967Z,44.4
2017-09-25T10:31:52.792Z,45.2
2017-09-25T10:32:53.886Z,44.0
2017-09-25T10:33:54.805Z,45.4
2017-09-25T10:34:55.608Z,44.1
2017-09-25T10:35:56.354Z,45.6
2017-09-25T10:36:57.136Z,43.9
2017-09-25T10:37:58.164Z,44.3
2017-09-25T10:38:58.916Z,42.6
2017-09-25T10:39:59.735Z,41.9
2017-09-25T10:41:00.607Z,41.8
2017-09-25T10:42:01.395Z,42.8
2017-09-25T10:43:02.539Z,43.2
2017-09-25T10:44:03.289Z,41.7
2017-09-25T10:45:04.043Z,38.9
2017-09-25T10:46:04.824Z,39.1
2017-09-25T10:47:05.565Z,38.2
2017-09-25T10:48:06.774Z,37.2
2017-09-25T10:49:07.518Z,35.2
2017-09-25T10:50:08.420Z,34.7
2017-09-25T10:51:09.146Z,35.3
2017-09-25T10:52:10.104Z,36.2
2017-09-25T10:53:12.910Z,37.3
2017-09-25T10:54:13.852Z,37.4
2017-09-25T10:55:14.700Z,37.0
2017-09-25T10:56:15.524Z,38.2
2017-09-25T10:57:16.316Z,41.3
2017-09-25T10:58:17.326Z,42.2
2017-09-25T10:59:18.165Z,37.6
2017-09-25T11:00:19.021Z,39.2
2017-09-25T11:01:19.784Z,36.5
2017-09-25T11:02:20.592Z,37.3
2017-09-25T11:03:21.622Z,40.2
2017-09-25T11:04:22.365Z,39.7
2017-09-25T11:05:23.096Z,38.2
2017-09-25T11:06:23.833Z,39.6
2017-09-25T11:07:24.577Z,41.3
2017-09-25T11:08:25.517Z,41.7
2017-09-25T11:09:26.268Z,43.0
2017-09-25T11:10:27.060Z,43.9
2017-09-25T11:11:27.839Z,43.6
2017-09-25T11:12:28.588Z,44.8
2017-09-25T11:13:29.722Z,44.9
2017-09-25T11:14:30.497Z,47.9
2017-09-25T11:15:31.234Z,45.9
2017-09-25T11:16:31.989Z,45.5
2017-09-25T11:17:32.725Z,44.0
2017-09-25T11:18:33.866Z,45.3
2017-09-25T11:19:34.696Z,44.4
2017-09-25T11:21:49.744Z,42.4
2017-09-25T11:22:50.479Z,43.9
2017-09-25T11:23:51.615Z,46.6
2017-09-25T11:24:52.379Z,46.2
2017-09-25T11:25:53.179Z,44.5
2017-09-25T11:26:53.975Z,43.5
2017-09-25T11:27:54.794Z,44.2
2017-09-25T11:28:55.835Z,42.8
2017-09-25T11:29:56.573Z,43.3
2017-09-25T11:30:57.313Z,41.7
2017-09-25T11:31:58.054Z,43.8
2017-09-25T11:32:58.802Z,43.9
2017-09-25T11:33:59.934Z,43.6
2017-09-25T11:35:00.674Z,44.8
2017-09-25T11:36:01.415Z,45.6
2017-09-25T11:37:02.164Z,44.3
2017-09-25T11:38:02.910Z,43.9
2017-09-25T11:39:04.072Z,44.6
2017-09-25T11:40:04.814Z,43.0
2017-09-25T11:41:05.556Z,45.5
2017-09-25T11:42:06.314Z,46.6
2017-09-25T11:43:07.055Z,47.3
2017-09-25T11:44:08.144Z,44.7
2017-09-25T11:45:08.876Z,45.9
2017-09-25T11:46:09.701Z,43.0
2017-09-25T11:47:10.478Z,45.8
2017-09-25T11:48:11.290Z,45.2
2017-09-25T11:49:12.564Z,45.4
2017-09-25T11:50:13.293Z,46.6
2017-09-25T11:51:14.108Z,44.9
2017-09-25T11:52:14.910Z,46.0
2017-09-25T11:53:15.724Z,46.6
2017-09-25T11:54:16.758Z,45.6
2017-09-25T11:55:17.500Z,46.0
2017-09-25T11:56:18.298Z,48.2
2017-09-25T11:57:19.049Z,49.0
2017-09-25T11:58:19.860Z,47.4
2017-09-25T11:59:20.653Z,47.1
2017-09-25T12:00:21.382Z,47.3
2017-09-25T12:01:22.956Z,45.8
2017-09-25T12:02:24.036Z,46.5
2017-09-25T12:03:24.857Z,46.2
2017-09-25T12:04:25.595Z,47.0
2017-09-25T12:05:26.396Z,46.9
2017-09-25T12:06:27.125Z,45.3
2017-09-25T12:07:27.859Z,43.1
2017-09-25T12:08:29.048Z,40.0
2017-09-25T12:09:29.860Z,40.5
2017-09-25T12:10:30.688Z,42.2
2017-09-25T12:11:31.428Z,42.8
2017-09-25T12:12:32.165Z,42.5
2017-09-25T12:13:32.956Z,42.5
2017-09-25T12:14:33.743Z,41.1
2017-09-25T12:15:34.531Z,40.5
2017-09-25T12:16:35.288Z,40.2
2017-09-25T12:17:36.061Z,40.2
2017-09-25T12:18:37.245Z,40.2
2017-09-25T12:19:37.986Z,38.5
2017-09-25T12:20:38.806Z,39.3
2017-09-25T12:21:39.605Z,39.1
2017-09-25T12:22:40.344Z,40.0
2017-09-25T12:23:41.446Z,41.5
2017-09-25T12:24:42.262Z,40.9
2017-09-25T12:25:43.063Z,42.0
2017-09-25T12:26:43.798Z,43.3
2017-09-25T12:27:44.586Z,42.6
2017-09-25T12:28:45.645Z,42.0
2017-09-25T12:29:46.398Z,42.0
2017-09-25T12:30:47.134Z,42.1
2017-09-25T12:31:47.889Z,41.7
2017-09-25T12:32:48.716Z,41.9
2017-09-25T12:33:49.815Z,40.7
2017-09-25T12:34:50.562Z,40.3
2017-09-25T12:35:51.375Z,41.9
2017-09-25T12:36:52.194Z,43.4
2017-09-25T12:37:52.937Z,42.3
2017-09-25T12:38:54.033Z,43.9
2017-09-25T12:39:54.829Z,42.2
2017-09-25T12:40:55.575Z,44.2
2017-09-25T12:41:56.342Z,43.1
2017-09-25T12:42:57.154Z,41.8
2017-09-25T12:43:58.153Z,41.0
2017-09-25T12:44:58.904Z,40.2
2017-09-25T12:45:59.646Z,37.8
2017-09-25T12:47:00.464Z,40.5
2017-09-25T12:48:01.206Z,40.8
2017-09-25T12:49:02.804Z,39.7
2017-09-25T12:50:03.585Z,41.4
2017-09-25T12:51:04.386Z,38.3
2017-09-25T12:52:05.173Z,38.5
2017-09-25T12:53:05.919Z,37.3
2017-09-25T12:54:07.068Z,40.0
2017-09-25T12:55:07.855Z,39.5
2017-09-25T12:56:08.670Z,39.7
2017-09-25T12:57:09.479Z,38.9
2017-09-25T12:58:10.287Z,38.6
2017-09-25T12:59:11.105Z,39.9
2017-09-25T13:00:11.934Z,39.9
2017-09-25T13:01:12.686Z,40.8
2017-09-25T13:02:13.782Z,40.2
2017-09-25T13:03:14.525Z,41.7
2017-09-25T13:04:15.263Z,41.6
2017-09-25T13:05:16.004Z,42.6
2017-09-25T13:06:16.731Z,44.9
2017-09-25T13:07:17.483Z,46.1
2017-09-25T13:08:18.515Z,45.6
2017-09-25T13:09:19.275Z,46.3
2017-09-25T13:10:20.088Z,48.6
2017-09-25T13:11:20.859Z,46.6
2017-09-25T13:12:21.655Z,47.6
2017-09-25T13:13:22.807Z,49.1
2017-09-25T13:14:23.549Z,50.6
2017-09-25T13:15:24.358Z,50.7
2017-09-25T13:16:25.107Z,52.2
2017-09-25T13:17:25.846Z,51.0
2017-09-25T13:18:27.014Z,51.6
2017-09-25T13:19:27.754Z,49.3
2017-09-25T13:20:28.559Z,48.4
2017-09-25T13:21:29.299Z,48.7
2017-09-25T13:22:30.117Z,47.8
2017-09-25T13:23:31.327Z,50.0
2017-09-25T13:24:32.116Z,48.8
2017-09-25T13:25:32.925Z,46.8
2017-09-25T13:26:33.777Z,48.3